Latest Coastal Weather Observations for Hindmarsh Island

IDS60701

Issued at 11:31 am CST Thursday 28 May 2015 (issued every 10 minutes, with the page automatically refreshed every 10 minutes)

About coastal observations | Map of coastal stations | Coastal observations for SA | Marine services | Other Formats
Station Details ID: 023894 Name: HINDMARSH ISLAND AWS Lat: -35.52 Lon: 138.82 Height: 11.0 m
Data from the previous 72 hours. | See also: Recent months at Hindmarsh Island
Date/Time
CST
Temp

°C
Wind Pressure Rain
since 9am
mm
Weather Cloud Vis
km
Sea
Height
m
Swell
Dir
 
Speed
knots
Gust
knots
hPa Trend Height
m
Period
s
Dir
28/11:30am 16.8 NW 13 19 1017.7 - 0.0 - - - - - - -
28/11:00am 16.6 NW 13 17 1017.9 - 0.0 - - - - - - -
28/10:30am 16.7 NW 13 18 1018.0 - 0.0 - - - - - - -
28/10:00am 16.3 NNW 12 16 1018.0 - 0.0 - - - - - - -
28/09:30am 15.6 NNW 11 15 1017.9 - 0.0 - - - - - - -
28/09:00am 15.2 NNW 10 13 1017.9 - 0.0 Fine Mostly cloudy 15 - - - -
28/08:30am 14.3 NNW 10 12 1017.9 - 0.0 - - - - - - -
28/08:00am 13.9 NNW 11 14 1017.5 - 0.0 - - - - - - -
28/07:30am 13.6 NNW 10 13 1017.7 - 0.0 - - - - - - -
28/07:00am 13.3 NNW 10 13 1017.6 - 0.0 - - - - - - -
28/06:30am 13.1 NNW 11 13 1017.0 - 0.0 - - - - - - -
28/06:00am 13.5 NNW 11 14 1016.8 - 0.0 - - - - - - -
28/05:30am 13.5 NNW 10 13 1016.6 - 0.0 - - - - - - -
28/05:00am 13.9 NNW 10 12 1016.5 - 0.0 - - - - - - -
28/04:30am 13.3 NNW 8 10 1016.8 - 0.0 - - - - - - -
28/04:00am 13.2 NNW 8 9 1016.8 - 0.0 - - - - - - -
28/03:30am 13.5 NW 7 9 1016.9 - 0.0 - - - - - - -
28/03:00am 13.9 NW 7 9 1016.9 - 0.0 - - - - - - -
28/02:30am 13.5 NW 6 8 1016.9 - 0.0 - - - - - - -
28/02:00am 13.9 NW 6 8 1017.1 - 0.0 - - - - - - -
28/01:30am 14.2 NNW 9 13 1017.2 - 0.0 - - - - - - -
28/01:00am 15.0 N 11 15 1016.9 - 0.0 - - - - - - -
28/12:30am 14.1 NNW 8 11 1017.0 - 0.0 - - - - - - -
28/12:00am 14.2 NW 7 9 1017.5 - 0.0 - - - - - - -
 
Date/Time
CST
Temp

°C
Wind Pressure Rain
since 9am
mm
Weather Cloud Vis
km
Sea
Height
m
Swell
Dir
 
Speed
knots
Gust
knots
hPa Trend Height
m
Period
s
Dir
27/11:30pm 14.2 NW 7 9 1017.8 - 0.0 - - - - - - -
27/11:00pm 14.8 NNW 6 8 1018.0 - 0.0 - - - - - - -
27/10:30pm 15.1 NNW 7 10 1018.1 - 0.0 - - - - - - -
27/10:00pm 15.2 NNW 8 10 1018.3 - 0.0 - - - - - - -
27/09:30pm 15.6 NNW 9 11 1018.3 - 0.0 - - - - - - -
27/09:00pm 15.5 NNW 9 12 1018.3 - 0.0 - - - - - - -
27/08:30pm 14.5 N 8 10 1018.4 - 0.0 - - - - - - -
27/08:00pm 14.0 N 6 8 1018.3 - 0.0 - - - - - - -
27/07:30pm 14.1 N 6 7 1018.3 - 0.0 - - - - - - -
27/07:00pm 14.9 N 5 7 1018.4 - 0.0 - - - - - - -
27/06:30pm 15.3 N 7 8 1018.1 - 0.0 - - - - - - -
27/06:00pm 16.2 NNW 10 13 1018.0 - 0.0 - - - - - - -
27/05:30pm 16.5 NNW 7 11 1018.0 - 0.0 - - - - - - -
27/05:00pm 16.6 NNW 5 9 1017.8 - 0.0 - - - - - - -
27/04:30pm 17.7 NNW 5 7 1017.8 - 0.0 - - - - - - -
27/04:00pm 18.0 NNW 8 11 1017.8 - 0.0 - - - - - - -
27/03:30pm 18.8 NNW 7 11 1017.9 - 0.0 - - - - - - -
27/03:00pm 18.9 NW 11 17 1018.0 - 0.0 - - - - - - -
27/02:30pm 19.2 NW 11 16 1018.0 - 0.0 - - - - - - -
27/02:00pm 19.2 NW 11 15 1017.9 - 0.0 - - - - - - -
27/01:30pm 19.2 NW 10 13 1018.2 - 0.0 - - - - - - -
27/01:00pm 19.3 NW 10 15 1018.5 - 0.0 - - - - - - -
27/12:30pm 18.4 NW 14 19 1018.7 - 0.0 - - - - - - -
27/12:00pm 17.7 NW 18 24 1019.0 - 0.0 - - - - - - -
27/11:30am 18.1 NW 16 21 1019.2 - 0.0 - - - - - - -
27/11:00am 17.7 NW 18 26 1019.0 - 0.0 - - - - - - -
27/10:30am 17.5 NW 18 25 1019.1 - 0.0 - - - - - - -
27/10:06am 17.1 NW 15 25 1019.2 - 0.0 - - - - - - -
27/10:00am 17.1 NW 12 18 1019.4 - 0.0 - - - - - - -
27/09:30am 16.4 NW 14 19 1019.5 - 0.0 - - - - - - -
27/09:00am 15.8 NW 15 22 1019.4 - 0.2 Fine Mostly clear 14 - - - -
27/08:30am 15.1 NW 11 16 1019.4 - 0.2 - - - - - - -
27/08:00am 14.4 NW 11 16 1019.2 - 0.2 - - - - - - -
27/07:30am 13.8 NW 11 14 1019.1 - 0.2 - - - - - - -
27/07:00am 13.5 NNW 9 13 1018.8 - 0.2 - - - - - - -
27/06:30am 14.0 NNW 13 16 1018.7 - 0.2 - - - - - - -
27/06:00am 13.8 NNW 11 13 1018.8 - 0.2 - - - - - - -
27/05:30am 13.6 NNW 11 13 1018.8 - 0.2 - - - - - - -
27/05:00am 13.8 NNW 9 11 1018.9 - 0.2 - - - - - - -
27/04:30am 13.6 NW 8 9 1019.1 - 0.2 - - - - - - -
27/04:00am 13.4 NW 5 6 1019.0 - 0.2 - - - - - - -
27/03:30am 13.0 NNW 7 7 1018.9 - 0.2 - - - - - - -
27/03:00am 13.4 N 6 7 1019.2 - 0.2 - - - - - - -
27/02:30am 13.2 NNW 6 7 1019.4 - 0.2 - - - - - - -
27/02:00am 13.7 NNW 7 9 1019.6 - 0.2 - - - - - - -
27/01:30am 13.1 NNW 6 11 1019.6 - 0.2 - - - - - - -
27/01:00am 12.7 ENE 3 5 1019.7 - 0.2 - - - - - - -
27/12:30am 14.1 N 3 5 1019.9 - 0.2 - - - - - - -
27/12:00am 14.2 N 9 12 1019.7 - 0.2 - - - - - - -
 
Date/Time
CST
Temp

°C
Wind Pressure Rain
since 9am
mm
Weather Cloud Vis
km
Sea
Height
m
Swell
Dir
 
Speed
knots
Gust
knots
hPa Trend Height
m
Period
s
Dir
26/11:30pm 13.9 N 7 8 1020.3 - 0.2 - - - - - - -
26/11:00pm 13.8 N 6 7 1020.5 - 0.2 - - - - - - -
26/10:30pm 13.5 N 6 7 1020.8 - 0.2 - - - - - - -
26/10:00pm 14.3 N 10 12 1021.0 - 0.0 - - - - - - -
26/09:30pm 15.0 NNW 8 10 1021.0 - 0.0 - - - - - - -
26/09:00pm 14.2 N 6 7 1021.0 - 0.0 - - - - - - -
26/08:30pm 14.8 N 5 6 1021.1 - 0.0 - - - - - - -
26/08:00pm 14.7 N 6 6 1021.0 - 0.0 - - - - - - -
26/07:30pm 14.8 NNE 4 6 1020.9 - 0.0 - - - - - - -
26/07:00pm 15.4 NE 3 4 1020.9 - 0.0 - - - - - - -
26/06:30pm 15.2 NE 5 6 1020.7 - 0.0 - - - - - - -
26/06:00pm 15.6 E 3 5 1020.8 - 0.0 - - - - - - -
26/05:30pm 16.5 E 3 4 1020.8 - 0.0 - - - - - - -
26/05:00pm 16.9 E 3 4 1020.7 - 0.0 - - - - - - -
26/04:30pm 17.9 NNE 4 5 1020.8 - 0.0 - - - - - - -
26/04:00pm 18.1 NE 7 7 1020.6 - 0.0 - - - - - - -
26/03:30pm 18.6 NE 4 6 1020.7 - 0.0 - - - - - - -
26/03:00pm 19.3 N 4 4 1020.7 - 0.0 - - - - - - -
26/02:30pm 19.1 N 4 5 1021.0 - 0.0 - - - - - - -
26/02:00pm 19.0 N 4 5 1021.4 - 0.0 - - - - - - -
26/01:30pm 18.8 N 4 6 1021.9 - 0.0 - - - - - - -
26/01:00pm 18.5 N 6 7 1022.5 - 0.0 - - - - - - -
26/12:30pm 18.5 N 6 8 1022.8 - 0.0 - - - - - - -
26/12:00pm 17.4 N 7 9 1023.3 - 0.0 - - - - - - -
26/11:30am 17.3 NNE 8 9 1023.6 - 0.0 - - - - - - -
26/11:00am 16.2 N 7 9 1024.2 - 0.0 - - - - - - -
26/10:30am 15.7 N 7 9 1024.6 - 0.0 - - - - - - -
26/10:00am 13.9 N 7 10 1025.0 - 0.0 - - - - - - -
26/09:30am 13.0 N 11 15 1025.0 - 0.0 - - - - - - -
26/09:00am 12.5 NNE 10 12 1025.2 - 0.0 - - - - - - -
26/08:30am 11.8 NNE 8 12 1025.3 - 0.0 - - - - - - -
26/08:00am 11.5 NNE 8 9 1025.3 - 0.0 - - - - - - -
26/07:30am 10.6 ENE 5 7 1025.2 - 0.0 - - - - - - -
26/07:00am 10.9 N 7 9 1025.3 - 0.0 - - - - - - -
26/06:30am 11.1 N 9 11 1025.2 - 0.0 - - - - - - -
26/06:00am 11.4 NNE 11 14 1025.0 - 0.0 - - - - - - -
26/05:30am 11.5 NNE 11 13 1025.1 - 0.0 - - - - - - -
26/05:00am 11.9 NNE 9 12 1025.1 - 0.0 - - - - - - -
26/04:30am 11.5 NE 9 10 1025.1 - 0.0 - - - - - - -
26/04:00am 11.6 NNE 9 11 1025.3 - 0.0 - - - - - - -
26/03:30am 11.5 NNE 9 11 1025.4 - 0.0 - - - - - - -
26/03:00am 11.3 NNE 7 8 1025.6 - 0.0 - - - - - - -
26/02:30am 11.5 N 8 9 1026.0 - 0.0 - - - - - - -
26/02:00am 11.5 N 7 8 1026.1 - 0.0 - - - - - - -
26/01:30am 11.4 N 6 7 1026.2 - 0.0 - - - - - - -
26/01:00am 10.7 NNE 5 6 1026.2 - 0.0 - - - - - - -
26/12:30am 10.4 E 5 5 1026.4 - 0.0 - - - - - - -
26/12:00am 11.2 N 4 5 1026.7 - 0.0 - - - - - - -
 
Date/Time
CST
Temp

°C
Wind Pressure Rain
since 9am
mm
Weather Cloud Vis
km
Sea
Height
m
Swell
Dir
 
Speed
knots
Gust
knots
hPa Trend Height
m
Period
s
Dir
25/11:30pm 11.3 N 5 7 1027.1 - 0.0 - - - - - - -
25/11:00pm 11.7 NNE 3 4 1027.3 - 0.0 - - - - - - -
25/10:30pm 11.2 NW 3 4 1027.2 - 0.0 - - - - - - -
25/10:00pm 12.4 CALM 0 0 1027.3 - 0.0 - - - - - - -
25/09:30pm 12.1 NW 2 3 1027.5 - 0.0 - - - - - - -
25/09:00pm 11.9 NW 4 6 1027.8 - 0.0 - - - - - - -
25/08:30pm 12.2 NNE 5 6 1027.2 - 0.0 - - - - - - -
25/08:00pm 12.0 NE 7 8 1027.5 - 0.0 - - - - - - -
25/07:30pm 12.3 NNE 4 5 1027.2 - 0.0 - - - - - - -
25/07:00pm 13.2 ESE 3 4 1027.2 - 0.0 - - - - - - -
25/06:30pm 13.3 ESE 4 5 1026.9 - 0.0 - - - - - - -
25/06:00pm 14.0 ESE 4 5 1027.0 - 0.0 - - - - - - -
25/05:30pm 14.0 SE 5 6 1026.8 - 0.0 - - - - - - -
25/05:00pm 14.6 SE 7 8 1026.4 - 0.0 - - - - - - -
25/04:30pm 15.2 SE 8 9 1026.1 - 0.0 - - - - - - -
25/04:00pm 16.0 SE 9 11 1026.3 - 0.0 - - - - - - -
25/03:30pm 16.9 SSE 10 11 1026.2 - 0.0 - - - - - - -
25/03:00pm 17.6 SE 8 9 1026.2 - 0.0 - - - - - - -
25/02:30pm 17.8 SE 7 9 1026.2 - 0.0 - - - - - - -
25/02:00pm 18.1 SE 8 9 1026.1 - 0.0 - - - - - - -
25/01:30pm 18.2 ESE 6 9 1026.3 - 0.0 - - - - - - -
25/01:00pm 18.3 ESE 6 9 1026.3 - 0.0 - - - - - - -
25/12:30pm 17.7 SSE 6 7 1026.7 - 0.0 - - - - - - -
25/12:00pm 18.2 NE 5 7 1027.5 - 0.0 - - - - - - -

Other Formats:

Comma delimited format used in spreadsheet applications
http://www.bom.gov.au/fwo/IDS60701/IDS60701.94677.axf

JavaScript Object Notation format (JSON) in row-major order
http://www.bom.gov.au/fwo/IDS60701/IDS60701.94677.json